Karpathos, Greece
Current Conditions -  °F | °C
As of 7:20 AM on Tuesday 23 Dec 2014 (Local Time) from LGRP Reporting Station
Few Clouds Few Clouds  
Wind Chill: 55°   Ceiling: Unl
Heat Index: 55°   Visibility: 6mi
Dew Point: 36°   Wind: 14mph
Humidity: 47%   Direction: 300°WNW
Pressure: 30.15"   Gusts: NA
Location:  35.5°N, 27.23°E
Report Text: LGRP 230420Z 30012KT 9999 FEW018 13/02 Q1021 NOSIG
Loading
Personal Weather Stations






























Interactive Weather Map New forecast layout! Learn more

10-Day Weather Forecast

Advertisements
Track Severe Weather on mobile